Aviation Digital Data Service (ADDS)

Output produced by TAFs form (1950 UTC 31 May 2016)
found at http://aviationweather.gov/adds/tafs/
 
KEGE 311729Z 3118/0118 00000KT P6SM FEW060 
     FM312000 30007KT P6SM VCSH SCT060 
     FM010300 09004KT P6SM SCT250 
     FM010700 00000KT P6SM SCT250